Terminal Aerodrome Forecast
Issued by NWS Birmingham, AL

Home | Current Version | Previous Version | Text Only | Print | Product List | Glossary On
Versions: 1 2 3 4 5 6 7 8 9 10 11 12 13 14
572
FTUS44 KBMX 212329
TAFBHM
TAF
KBHM 212329Z 2200/2224 01002KT P6SM SCT250
     FM221500 08005KT P6SM SCT100=

USA.gov is the U.S. government's official web portal to all federal, state and local government web resources and services.